sensor_id;sensor_type;location;lat;lon;timestamp;P1;durP1;ratioP1;P2;durP2;ratioP2
41323;SDS011;27073;51.128;4.220;2023-06-26T00:00:20;7.53;;;3.15;;
41323;SDS011;27073;51.128;4.220;2023-06-26T00:02:45;4.60;;;2.72;;
41323;SDS011;27073;51.128;4.220;2023-06-26T00:05:11;5.40;;;3.03;;
41323;SDS011;27073;51.128;4.220;2023-06-26T00:07:38;5.65;;;2.78;;
41323;SDS011;27073;51.128;4.220;2023-06-26T00:10:04;6.65;;;2.55;;
41323;SDS011;27073;51.128;4.220;2023-06-26T00:12:31;5.35;;;2.70;;
41323;SDS011;27073;51.128;4.220;2023-06-26T00:14:57;4.20;;;2.67;;
41323;SDS011;27073;51.128;4.220;2023-06-26T00:17:23;4.07;;;3.17;;
41323;SDS011;27073;51.128;4.220;2023-06-26T00:19:49;5.63;;;3.22;;
41323;SDS011;27073;51.128;4.220;2023-06-26T00:22:15;7.15;;;3.60;;
41323;SDS011;27073;51.128;4.220;2023-06-26T00:24:41;6.57;;;3.20;;
41323;SDS011;27073;51.128;4.220;2023-06-26T00:27:07;5.40;;;3.33;;
41323;SDS011;27073;51.128;4.220;2023-06-26T00:29:33;5.53;;;3.33;;
41323;SDS011;27073;51.128;4.220;2023-06-26T00:31:58;4.45;;;3.33;;
41323;SDS011;27073;51.128;4.220;2023-06-26T00:34:25;6.40;;;3.50;;
41323;SDS011;27073;51.128;4.220;2023-06-26T00:36:50;5.47;;;3.38;;
41323;SDS011;27073;51.128;4.220;2023-06-26T00:39:16;4.20;;;3.05;;
41323;SDS011;27073;51.128;4.220;2023-06-26T00:41:42;5.10;;;3.10;;
41323;SDS011;27073;51.128;4.220;2023-06-26T00:44:10;5.45;;;3.05;;
41323;SDS011;27073;51.128;4.220;2023-06-26T00:46:35;6.22;;;3.40;;
41323;SDS011;27073;51.128;4.220;2023-06-26T00:49:02;4.18;;;2.70;;
41323;SDS011;27073;51.128;4.220;2023-06-26T00:51:30;6.55;;;3.33;;
41323;SDS011;27073;51.128;4.220;2023-06-26T00:53:56;4.68;;;2.80;;
41323;SDS011;27073;51.128;4.220;2023-06-26T00:56:22;6.25;;;2.97;;
41323;SDS011;27073;51.128;4.220;2023-06-26T00:58:48;5.85;;;3.03;;
41323;SDS011;27073;51.128;4.220;2023-06-26T01:01:14;6.85;;;3.17;;
41323;SDS011;27073;51.128;4.220;2023-06-26T01:03:45;5.70;;;3.78;;
41323;SDS011;27073;51.128;4.220;2023-06-26T01:06:16;6.78;;;3.10;;
41323;SDS011;27073;51.128;4.220;2023-06-26T01:08:43;6.85;;;3.30;;
41323;SDS011;27073;51.128;4.220;2023-06-26T01:11:10;5.78;;;3.67;;
41323;SDS011;27073;51.128;4.220;2023-06-26T01:13:36;4.97;;;3.50;;
41323;SDS011;27073;51.128;4.220;2023-06-26T01:16:03;6.32;;;3.20;;
41323;SDS011;27073;51.128;4.220;2023-06-26T01:18:30;8.68;;;3.25;;
41323;SDS011;27073;51.128;4.220;2023-06-26T01:20:57;9.05;;;4.30;;
41323;SDS011;27073;51.128;4.220;2023-06-26T01:28:43;6.85;;;4.03;;
41323;SDS011;27073;51.128;4.220;2023-06-26T01:31:10;8.40;;;3.47;;
41323;SDS011;27073;51.128;4.220;2023-06-26T01:33:36;7.70;;;3.40;;
41323;SDS011;27073;51.128;4.220;2023-06-26T01:36:03;8.77;;;3.90;;
41323;SDS011;27073;51.128;4.220;2023-06-26T01:38:30;8.13;;;3.70;;
41323;SDS011;27073;51.128;4.220;2023-06-26T01:40:56;10.40;;;4.45;;
41323;SDS011;27073;51.128;4.220;2023-06-26T01:49:09;8.02;;;3.60;;
41323;SDS011;27073;51.128;4.220;2023-06-26T01:51:58;6.03;;;3.28;;
41323;SDS011;27073;51.128;4.220;2023-06-26T01:54:31;8.43;;;3.80;;
41323;SDS011;27073;51.128;4.220;2023-06-26T01:57:02;7.35;;;3.22;;
41323;SDS011;27073;51.128;4.220;2023-06-26T01:59:31;6.28;;;3.30;;
41323;SDS011;27073;51.128;4.220;2023-06-26T02:02:00;8.27;;;3.50;;
41323;SDS011;27073;51.128;4.220;2023-06-26T02:04:26;8.82;;;3.03;;
41323;SDS011;27073;51.128;4.220;2023-06-26T02:06:52;10.05;;;3.35;;
41323;SDS011;27073;51.128;4.220;2023-06-26T02:09:17;8.93;;;3.40;;
41323;SDS011;27073;51.128;4.220;2023-06-26T02:11:44;7.95;;;3.35;;
41323;SDS011;27073;51.128;4.220;2023-06-26T02:14:09;11.90;;;4.03;;
41323;SDS011;27073;51.128;4.220;2023-06-26T02:16:36;11.02;;;3.83;;
41323;SDS011;27073;51.128;4.220;2023-06-26T02:19:01;8.73;;;3.70;;
41323;SDS011;27073;51.128;4.220;2023-06-26T02:21:27;7.55;;;3.70;;
41323;SDS011;27073;51.128;4.220;2023-06-26T02:23:55;7.30;;;3.47;;
41323;SDS011;27073;51.128;4.220;2023-06-26T02:26:20;7.97;;;3.53;;
41323;SDS011;27073;51.128;4.220;2023-06-26T02:28:46;7.68;;;3.70;;
41323;SDS011;27073;51.128;4.220;2023-06-26T02:31:12;9.55;;;4.03;;
41323;SDS011;27073;51.128;4.220;2023-06-26T02:33:37;14.45;;;4.05;;
41323;SDS011;27073;51.128;4.220;2023-06-26T02:36:04;10.65;;;3.80;;
41323;SDS011;27073;51.128;4.220;2023-06-26T02:38:31;9.85;;;4.13;;
41323;SDS011;27073;51.128;4.220;2023-06-26T02:40:58;13.23;;;4.60;;
41323;SDS011;27073;51.128;4.220;2023-06-26T02:43:23;10.88;;;4.53;;
41323;SDS011;27073;51.128;4.220;2023-06-26T02:45:49;12.70;;;5.18;;
41323;SDS011;27073;51.128;4.220;2023-06-26T02:48:15;8.32;;;4.07;;
41323;SDS011;27073;51.128;4.220;2023-06-26T02:50:42;12.13;;;4.47;;
41323;SDS011;27073;51.128;4.220;2023-06-26T02:53:12;13.95;;;4.25;;
41323;SDS011;27073;51.128;4.220;2023-06-26T02:55:41;11.82;;;4.53;;
41323;SDS011;27073;51.128;4.220;2023-06-26T02:58:07;11.27;;;5.15;;
41323;SDS011;27073;51.128;4.220;2023-06-26T03:00:33;11.70;;;4.63;;
41323;SDS011;27073;51.128;4.220;2023-06-26T03:03:02;9.20;;;4.20;;
41323;SDS011;27073;51.128;4.220;2023-06-26T03:05:29;13.25;;;4.93;;
41323;SDS011;27073;51.128;4.220;2023-06-26T03:07:55;11.07;;;4.47;;
41323;SDS011;27073;51.128;4.220;2023-06-26T03:10:21;13.18;;;5.57;;
41323;SDS011;27073;51.128;4.220;2023-06-26T03:12:47;8.63;;;4.47;;
41323;SDS011;27073;51.128;4.220;2023-06-26T03:15:16;10.57;;;4.30;;
41323;SDS011;27073;51.128;4.220;2023-06-26T03:17:42;12.80;;;4.47;;
41323;SDS011;27073;51.128;4.220;2023-06-26T03:20:12;17.05;;;5.00;;
41323;SDS011;27073;51.128;4.220;2023-06-26T03:23:07;14.43;;;4.90;;
41323;SDS011;27073;51.128;4.220;2023-06-26T03:25:32;12.13;;;4.13;;
41323;SDS011;27073;51.128;4.220;2023-06-26T03:28:12;14.10;;;5.00;;
41323;SDS011;27073;51.128;4.220;2023-06-26T03:30:38;12.15;;;4.50;;
41323;SDS011;27073;51.128;4.220;2023-06-26T03:33:05;11.38;;;4.70;;
41323;SDS011;27073;51.128;4.220;2023-06-26T03:35:31;12.98;;;4.60;;
41323;SDS011;27073;51.128;4.220;2023-06-26T03:37:57;16.58;;;5.63;;
41323;SDS011;27073;51.128;4.220;2023-06-26T03:40:23;11.82;;;4.90;;
41323;SDS011;27073;51.128;4.220;2023-06-26T03:42:49;13.88;;;4.70;;
41323;SDS011;27073;51.128;4.220;2023-06-26T03:45:15;13.35;;;4.85;;
41323;SDS011;27073;51.128;4.220;2023-06-26T03:47:43;14.88;;;4.80;;
41323;SDS011;27073;51.128;4.220;2023-06-26T03:50:08;13.07;;;4.82;;
41323;SDS011;27073;51.128;4.220;2023-06-26T03:52:34;12.65;;;4.43;;
41323;SDS011;27073;51.128;4.220;2023-06-26T03:55:00;17.50;;;4.57;;
41323;SDS011;27073;51.128;4.220;2023-06-26T03:57:25;21.65;;;4.97;;
41323;SDS011;27073;51.128;4.220;2023-06-26T03:59:51;11.90;;;4.40;;
41323;SDS011;27073;51.128;4.220;2023-06-26T04:02:20;13.63;;;4.90;;
41323;SDS011;27073;51.128;4.220;2023-06-26T04:04:45;12.95;;;4.05;;
41323;SDS011;27073;51.128;4.220;2023-06-26T04:07:11;13.60;;;4.85;;
41323;SDS011;27073;51.128;4.220;2023-06-26T04:09:37;15.27;;;4.65;;
41323;SDS011;27073;51.128;4.220;2023-06-26T04:12:03;13.30;;;4.53;;
41323;SDS011;27073;51.128;4.220;2023-06-26T04:14:29;13.70;;;4.07;;
41323;SDS011;27073;51.128;4.220;2023-06-26T04:16:54;14.20;;;4.57;;
41323;SDS011;27073;51.128;4.220;2023-06-26T04:19:20;12.73;;;4.78;;
41323;SDS011;27073;51.128;4.220;2023-06-26T04:21:46;13.50;;;4.28;;
41323;SDS011;27073;51.128;4.220;2023-06-26T04:24:12;16.42;;;4.45;;
41323;SDS011;27073;51.128;4.220;2023-06-26T04:26:37;14.45;;;4.35;;
41323;SDS011;27073;51.128;4.220;2023-06-26T04:29:06;16.05;;;5.57;;
41323;SDS011;27073;51.128;4.220;2023-06-26T04:31:32;13.57;;;4.38;;
41323;SDS011;27073;51.128;4.220;2023-06-26T04:33:58;15.45;;;4.78;;
41323;SDS011;27073;51.128;4.220;2023-06-26T04:36:25;11.93;;;4.28;;
41323;SDS011;27073;51.128;4.220;2023-06-26T04:38:54;17.60;;;4.97;;
41323;SDS011;27073;51.128;4.220;2023-06-26T04:41:20;17.15;;;4.80;;
41323;SDS011;27073;51.128;4.220;2023-06-26T04:43:46;12.23;;;4.43;;
41323;SDS011;27073;51.128;4.220;2023-06-26T04:46:12;12.82;;;4.28;;
41323;SDS011;27073;51.128;4.220;2023-06-26T04:48:38;14.93;;;4.60;;
41323;SDS011;27073;51.128;4.220;2023-06-26T04:51:03;17.45;;;4.75;;
41323;SDS011;27073;51.128;4.220;2023-06-26T04:53:29;18.55;;;4.72;;
41323;SDS011;27073;51.128;4.220;2023-06-26T04:55:55;16.33;;;4.57;;
41323;SDS011;27073;51.128;4.220;2023-06-26T04:58:21;11.93;;;4.18;;
41323;SDS011;27073;51.128;4.220;2023-06-26T05:00:46;13.93;;;3.90;;
41323;SDS011;27073;51.128;4.220;2023-06-26T05:03:13;16.85;;;4.38;;
41323;SDS011;27073;51.128;4.220;2023-06-26T05:05:40;13.70;;;4.38;;
41323;SDS011;27073;51.128;4.220;2023-06-26T05:10:40;15.77;;;5.32;;
41323;SDS011;27073;51.128;4.220;2023-06-26T05:13:06;16.10;;;4.18;;
41323;SDS011;27073;51.128;4.220;2023-06-26T05:15:32;17.30;;;4.30;;
41323;SDS011;27073;51.128;4.220;2023-06-26T05:17:57;12.65;;;3.55;;
41323;SDS011;27073;51.128;4.220;2023-06-26T05:20:23;13.07;;;3.95;;
41323;SDS011;27073;51.128;4.220;2023-06-26T05:22:49;11.95;;;4.55;;
41323;SDS011;27073;51.128;4.220;2023-06-26T05:25:15;13.63;;;3.80;;
41323;SDS011;27073;51.128;4.220;2023-06-26T05:27:42;13.20;;;3.97;;
41323;SDS011;27073;51.128;4.220;2023-06-26T05:30:08;12.40;;;4.00;;
41323;SDS011;27073;51.128;4.220;2023-06-26T05:32:34;11.23;;;3.25;;
41323;SDS011;27073;51.128;4.220;2023-06-26T05:35:02;11.40;;;3.65;;
41323;SDS011;27073;51.128;4.220;2023-06-26T05:37:31;9.98;;;3.95;;
41323;SDS011;27073;51.128;4.220;2023-06-26T05:39:58;14.73;;;4.70;;
41323;SDS011;27073;51.128;4.220;2023-06-26T05:42:25;10.98;;;3.75;;
41323;SDS011;27073;51.128;4.220;2023-06-26T05:44:52;10.75;;;3.60;;
41323;SDS011;27073;51.128;4.220;2023-06-26T05:47:18;15.48;;;3.88;;
41323;SDS011;27073;51.128;4.220;2023-06-26T05:49:44;11.07;;;3.65;;
41323;SDS011;27073;51.128;4.220;2023-06-26T05:52:10;6.63;;;2.72;;
41323;SDS011;27073;51.128;4.220;2023-06-26T05:54:36;12.75;;;3.33;;
41323;SDS011;27073;51.128;4.220;2023-06-26T05:57:02;12.88;;;4.15;;
41323;SDS011;27073;51.128;4.220;2023-06-26T05:59:31;11.05;;;3.05;;
41323;SDS011;27073;51.128;4.220;2023-06-26T06:01:57;11.68;;;3.53;;
41323;SDS011;27073;51.128;4.220;2023-06-26T06:04:23;8.98;;;3.03;;
41323;SDS011;27073;51.128;4.220;2023-06-26T06:06:49;12.93;;;3.38;;
41323;SDS011;27073;51.128;4.220;2023-06-26T06:09:15;12.63;;;3.38;;
41323;SDS011;27073;51.128;4.220;2023-06-26T06:11:40;14.77;;;3.33;;
41323;SDS011;27073;51.128;4.220;2023-06-26T06:14:06;11.20;;;3.25;;
41323;SDS011;27073;51.128;4.220;2023-06-26T06:16:32;11.95;;;3.20;;
41323;SDS011;27073;51.128;4.220;2023-06-26T06:18:57;8.38;;;2.20;;
41323;SDS011;27073;51.128;4.220;2023-06-26T06:21:23;12.93;;;3.90;;
41323;SDS011;27073;51.128;4.220;2023-06-26T06:23:49;11.70;;;3.47;;
41323;SDS011;27073;51.128;4.220;2023-06-26T06:26:14;10.13;;;2.42;;
41323;SDS011;27073;51.128;4.220;2023-06-26T06:28:40;10.45;;;2.40;;
41323;SDS011;27073;51.128;4.220;2023-06-26T06:31:06;11.23;;;2.17;;
41323;SDS011;27073;51.128;4.220;2023-06-26T06:33:31;8.68;;;2.17;;
41323;SDS011;27073;51.128;4.220;2023-06-26T06:35:57;10.68;;;2.08;;
41323;SDS011;27073;51.128;4.220;2023-06-26T06:38:23;9.52;;;1.58;;
41323;SDS011;27073;51.128;4.220;2023-06-26T06:40:48;6.63;;;1.20;;
41323;SDS011;27073;51.128;4.220;2023-06-26T06:43:14;5.13;;;1.20;;
41323;SDS011;27073;51.128;4.220;2023-06-26T06:45:44;6.05;;;1.38;;
41323;SDS011;27073;51.128;4.220;2023-06-26T06:48:10;7.90;;;1.70;;
41323;SDS011;27073;51.128;4.220;2023-06-26T06:50:35;11.43;;;2.15;;
41323;SDS011;27073;51.128;4.220;2023-06-26T06:53:01;7.47;;;1.50;;
41323;SDS011;27073;51.128;4.220;2023-06-26T06:55:27;6.97;;;1.50;;
41323;SDS011;27073;51.128;4.220;2023-06-26T06:57:52;5.00;;;1.13;;
41323;SDS011;27073;51.128;4.220;2023-06-26T07:00:18;9.38;;;1.40;;
41323;SDS011;27073;51.128;4.220;2023-06-26T07:02:44;6.10;;;1.40;;
41323;SDS011;27073;51.128;4.220;2023-06-26T07:05:11;5.63;;;1.05;;
41323;SDS011;27073;51.128;4.220;2023-06-26T07:07:38;5.57;;;1.42;;
41323;SDS011;27073;51.128;4.220;2023-06-26T07:10:11;4.40;;;1.17;;
41323;SDS011;27073;51.128;4.220;2023-06-26T07:12:38;11.50;;;1.60;;
41323;SDS011;27073;51.128;4.220;2023-06-26T07:15:04;7.80;;;1.08;;
41323;SDS011;27073;51.128;4.220;2023-06-26T07:17:32;3.50;;;1.20;;
41323;SDS011;27073;51.128;4.220;2023-06-26T07:19:58;6.47;;;1.60;;
41323;SDS011;27073;51.128;4.220;2023-06-26T07:22:24;6.90;;;1.50;;
41323;SDS011;27073;51.128;4.220;2023-06-26T07:24:50;6.35;;;1.10;;
41323;SDS011;27073;51.128;4.220;2023-06-26T07:27:15;4.50;;;1.13;;
41323;SDS011;27073;51.128;4.220;2023-06-26T07:29:43;6.78;;;2.10;;
41323;SDS011;27073;51.128;4.220;2023-06-26T07:32:09;7.18;;;1.17;;
41323;SDS011;27073;51.128;4.220;2023-06-26T07:34:34;8.25;;;1.85;;
41323;SDS011;27073;51.128;4.220;2023-06-26T07:37:00;6.35;;;1.65;;
41323;SDS011;27073;51.128;4.220;2023-06-26T07:39:26;4.90;;;1.58;;
41323;SDS011;27073;51.128;4.220;2023-06-26T07:41:52;9.00;;;1.70;;
41323;SDS011;27073;51.128;4.220;2023-06-26T07:44:17;6.68;;;1.60;;
41323;SDS011;27073;51.128;4.220;2023-06-26T07:46:43;8.57;;;1.30;;
41323;SDS011;27073;51.128;4.220;2023-06-26T07:49:10;4.78;;;1.40;;
41323;SDS011;27073;51.128;4.220;2023-06-26T07:51:36;9.85;;;1.92;;
41323;SDS011;27073;51.128;4.220;2023-06-26T07:54:02;9.00;;;1.45;;
41323;SDS011;27073;51.128;4.220;2023-06-26T07:56:28;4.97;;;1.13;;
41323;SDS011;27073;51.128;4.220;2023-06-26T07:58:53;6.40;;;1.77;;
41323;SDS011;27073;51.128;4.220;2023-06-26T08:01:19;4.38;;;1.48;;
41323;SDS011;27073;51.128;4.220;2023-06-26T08:03:45;5.47;;;1.30;;
41323;SDS011;27073;51.128;4.220;2023-06-26T08:06:11;6.95;;;1.63;;
41323;SDS011;27073;51.128;4.220;2023-06-26T08:08:36;5.50;;;1.40;;
41323;SDS011;27073;51.128;4.220;2023-06-26T08:11:02;5.22;;;1.45;;
41323;SDS011;27073;51.128;4.220;2023-06-26T08:13:28;3.95;;;1.20;;
41323;SDS011;27073;51.128;4.220;2023-06-26T08:15:53;5.43;;;1.02;;
41323;SDS011;27073;51.128;4.220;2023-06-26T08:18:19;4.13;;;1.23;;
41323;SDS011;27073;51.128;4.220;2023-06-26T08:20:45;4.15;;;1.00;;
41323;SDS011;27073;51.128;4.220;2023-06-26T08:23:11;6.28;;;1.42;;
41323;SDS011;27073;51.128;4.220;2023-06-26T08:25:37;8.07;;;1.73;;
41323;SDS011;27073;51.128;4.220;2023-06-26T08:28:02;6.95;;;1.42;;
41323;SDS011;27073;51.128;4.220;2023-06-26T08:30:29;8.55;;;1.65;;
41323;SDS011;27073;51.128;4.220;2023-06-26T08:32:57;5.40;;;1.10;;
41323;SDS011;27073;51.128;4.220;2023-06-26T08:35:23;4.05;;;1.20;;
41323;SDS011;27073;51.128;4.220;2023-06-26T08:37:49;8.52;;;1.30;;
41323;SDS011;27073;51.128;4.220;2023-06-26T08:40:17;5.95;;;1.10;;
41323;SDS011;27073;51.128;4.220;2023-06-26T08:42:46;7.65;;;2.00;;
41323;SDS011;27073;51.128;4.220;2023-06-26T08:45:12;3.95;;;1.23;;
41323;SDS011;27073;51.128;4.220;2023-06-26T08:47:38;5.35;;;1.50;;
41323;SDS011;27073;51.128;4.220;2023-06-26T08:50:12;6.57;;;1.38;;
41323;SDS011;27073;51.128;4.220;2023-06-26T08:53:13;7.28;;;0.90;;
41323;SDS011;27073;51.128;4.220;2023-06-26T08:58:17;6.60;;;2.03;;
41323;SDS011;27073;51.128;4.220;2023-06-26T09:00:43;12.75;;;2.03;;
41323;SDS011;27073;51.128;4.220;2023-06-26T09:03:08;8.57;;;1.75;;
41323;SDS011;27073;51.128;4.220;2023-06-26T09:05:35;8.30;;;1.90;;
41323;SDS011;27073;51.128;4.220;2023-06-26T09:08:01;6.63;;;2.10;;
41323;SDS011;27073;51.128;4.220;2023-06-26T09:10:27;7.40;;;1.85;;
41323;SDS011;27073;51.128;4.220;2023-06-26T09:12:56;7.63;;;1.88;;
41323;SDS011;27073;51.128;4.220;2023-06-26T09:15:23;11.00;;;1.70;;
41323;SDS011;27073;51.128;4.220;2023-06-26T09:17:49;5.45;;;1.42;;
41323;SDS011;27073;51.128;4.220;2023-06-26T09:20:15;8.82;;;2.17;;
41323;SDS011;27073;51.128;4.220;2023-06-26T09:22:42;5.88;;;1.60;;
41323;SDS011;27073;51.128;4.220;2023-06-26T09:25:12;5.05;;;1.23;;
41323;SDS011;27073;51.128;4.220;2023-06-26T09:27:38;9.90;;;2.15;;
41323;SDS011;27073;51.128;4.220;2023-06-26T09:30:03;10.38;;;1.67;;
41323;SDS011;27073;51.128;4.220;2023-06-26T09:32:33;5.82;;;1.55;;
41323;SDS011;27073;51.128;4.220;2023-06-26T09:35:01;7.32;;;1.55;;
41323;SDS011;27073;51.128;4.220;2023-06-26T09:37:28;4.45;;;1.80;;
41323;SDS011;27073;51.128;4.220;2023-06-26T09:39:54;4.78;;;1.33;;
41323;SDS011;27073;51.128;4.220;2023-06-26T09:42:19;9.18;;;1.63;;
41323;SDS011;27073;51.128;4.220;2023-06-26T09:44:45;5.45;;;1.25;;
41323;SDS011;27073;51.128;4.220;2023-06-26T09:47:12;9.90;;;2.20;;
41323;SDS011;27073;51.128;4.220;2023-06-26T09:49:41;5.45;;;1.25;;
41323;SDS011;27073;51.128;4.220;2023-06-26T09:52:08;6.05;;;1.63;;
41323;SDS011;27073;51.128;4.220;2023-06-26T09:54:34;6.63;;;1.50;;
41323;SDS011;27073;51.128;4.220;2023-06-26T09:57:07;8.50;;;1.48;;
41323;SDS011;27073;51.128;4.220;2023-06-26T09:59:36;5.55;;;1.27;;
41323;SDS011;27073;51.128;4.220;2023-06-26T10:02:03;6.32;;;1.58;;
41323;SDS011;27073;51.128;4.220;2023-06-26T10:04:29;7.15;;;1.30;;
41323;SDS011;27073;51.128;4.220;2023-06-26T10:06:56;5.05;;;1.58;;
41323;SDS011;27073;51.128;4.220;2023-06-26T10:09:22;6.07;;;1.33;;
41323;SDS011;27073;51.128;4.220;2023-06-26T10:12:06;10.90;;;1.42;;
41323;SDS011;27073;51.128;4.220;2023-06-26T10:14:39;5.47;;;1.40;;
41323;SDS011;27073;51.128;4.220;2023-06-26T10:17:08;4.40;;;0.95;;
41323;SDS011;27073;51.128;4.220;2023-06-26T10:19:36;4.30;;;1.50;;
41323;SDS011;27073;51.128;4.220;2023-06-26T10:22:03;6.78;;;1.80;;
41323;SDS011;27073;51.128;4.220;2023-06-26T10:24:31;6.15;;;1.33;;
41323;SDS011;27073;51.128;4.220;2023-06-26T10:27:19;5.65;;;1.25;;
41323;SDS011;27073;51.128;4.220;2023-06-26T10:29:48;4.95;;;1.35;;
41323;SDS011;27073;51.128;4.220;2023-06-26T10:32:20;4.90;;;1.25;;
41323;SDS011;27073;51.128;4.220;2023-06-26T10:34:46;8.98;;;1.17;;
41323;SDS011;27073;51.128;4.220;2023-06-26T10:37:12;5.75;;;1.20;;
41323;SDS011;27073;51.128;4.220;2023-06-26T10:39:48;10.15;;;1.83;;
41323;SDS011;27073;51.128;4.220;2023-06-26T10:42:15;4.57;;;1.33;;
41323;SDS011;27073;51.128;4.220;2023-06-26T10:44:46;5.85;;;1.38;;
41323;SDS011;27073;51.128;4.220;2023-06-26T10:47:33;5.82;;;1.40;;
41323;SDS011;27073;51.128;4.220;2023-06-26T10:53:08;5.10;;;1.38;;
41323;SDS011;27073;51.128;4.220;2023-06-26T10:55:40;3.33;;;1.20;;
41323;SDS011;27073;51.128;4.220;2023-06-26T11:01:05;7.88;;;1.38;;
41323;SDS011;27073;51.128;4.220;2023-06-26T11:04:35;5.78;;;1.35;;
41323;SDS011;27073;51.128;4.220;2023-06-26T11:06:32;5.53;;;1.35;;
41323;SDS011;27073;51.128;4.220;2023-06-26T11:14:21;4.60;;;1.23;;
41323;SDS011;27073;51.128;4.220;2023-06-26T11:16:48;6.43;;;1.17;;
41323;SDS011;27073;51.128;4.220;2023-06-26T11:19:14;6.68;;;1.73;;
41323;SDS011;27073;51.128;4.220;2023-06-26T11:21:41;5.25;;;1.38;;
41323;SDS011;27073;51.128;4.220;2023-06-26T11:24:08;4.45;;;1.10;;
41323;SDS011;27073;51.128;4.220;2023-06-26T11:26:59;6.25;;;1.15;;
41323;SDS011;27073;51.128;4.220;2023-06-26T11:29:27;7.38;;;1.58;;
41323;SDS011;27073;51.128;4.220;2023-06-26T11:31:58;8.00;;;1.80;;
41323;SDS011;27073;51.128;4.220;2023-06-26T11:34:30;6.35;;;1.58;;
41323;SDS011;27073;51.128;4.220;2023-06-26T11:36:57;6.13;;;1.83;;
41323;SDS011;27073;51.128;4.220;2023-06-26T11:39:23;4.15;;;1.23;;
41323;SDS011;27073;51.128;4.220;2023-06-26T11:41:48;6.28;;;1.50;;
41323;SDS011;27073;51.128;4.220;2023-06-26T11:44:14;4.53;;;1.42;;
41323;SDS011;27073;51.128;4.220;2023-06-26T11:46:45;5.57;;;1.50;;
41323;SDS011;27073;51.128;4.220;2023-06-26T11:49:11;6.10;;;1.40;;
41323;SDS011;27073;51.128;4.220;2023-06-26T11:51:36;4.40;;;1.35;;
41323;SDS011;27073;51.128;4.220;2023-06-26T11:54:02;6.30;;;1.10;;
41323;SDS011;27073;51.128;4.220;2023-06-26T11:56:29;5.25;;;1.02;;
41323;SDS011;27073;51.128;4.220;2023-06-26T11:59:05;3.67;;;1.35;;
41323;SDS011;27073;51.128;4.220;2023-06-26T12:04:05;3.97;;;1.13;;
41323;SDS011;27073;51.128;4.220;2023-06-26T12:06:33;4.45;;;1.00;;
41323;SDS011;27073;51.128;4.220;2023-06-26T12:09:01;4.80;;;1.30;;
41323;SDS011;27073;51.128;4.220;2023-06-26T12:11:30;6.50;;;1.33;;
41323;SDS011;27073;51.128;4.220;2023-06-26T12:13:56;7.15;;;1.42;;
41323;SDS011;27073;51.128;4.220;2023-06-26T12:16:23;2.70;;;0.93;;
41323;SDS011;27073;51.128;4.220;2023-06-26T12:18:48;3.08;;;0.80;;
41323;SDS011;27073;51.128;4.220;2023-06-26T12:24:00;4.82;;;1.42;;
41323;SDS011;27073;51.128;4.220;2023-06-26T12:26:26;4.88;;;1.00;;
41323;SDS011;27073;51.128;4.220;2023-06-26T12:29:18;3.38;;;1.17;;
41323;SDS011;27073;51.128;4.220;2023-06-26T12:31:45;4.88;;;1.38;;
41323;SDS011;27073;51.128;4.220;2023-06-26T12:34:17;4.32;;;0.88;;
41323;SDS011;27073;51.128;4.220;2023-06-26T12:36:49;4.40;;;1.42;;
41323;SDS011;27073;51.128;4.220;2023-06-26T12:39:19;5.40;;;1.08;;
41323;SDS011;27073;51.128;4.220;2023-06-26T12:41:46;5.40;;;1.13;;
41323;SDS011;27073;51.128;4.220;2023-06-26T12:44:19;3.75;;;1.00;;
41323;SDS011;27073;51.128;4.220;2023-06-26T12:46:46;4.68;;;1.52;;
41323;SDS011;27073;51.128;4.220;2023-06-26T12:49:13;3.92;;;1.00;;
41323;SDS011;27073;51.128;4.220;2023-06-26T12:51:39;4.25;;;1.08;;
41323;SDS011;27073;51.128;4.220;2023-06-26T12:54:05;5.88;;;1.08;;
41323;SDS011;27073;51.128;4.220;2023-06-26T12:56:31;6.75;;;1.33;;
41323;SDS011;27073;51.128;4.220;2023-06-26T12:58:56;3.92;;;1.20;;
41323;SDS011;27073;51.128;4.220;2023-06-26T13:01:22;3.10;;;1.00;;
41323;SDS011;27073;51.128;4.220;2023-06-26T13:03:49;4.28;;;1.10;;
41323;SDS011;27073;51.128;4.220;2023-06-26T13:06:18;4.60;;;0.95;;
41323;SDS011;27073;51.128;4.220;2023-06-26T13:08:43;3.88;;;0.90;;
41323;SDS011;27073;51.128;4.220;2023-06-26T13:11:09;3.15;;;0.70;;
41323;SDS011;27073;51.128;4.220;2023-06-26T13:13:37;3.40;;;1.50;;
41323;SDS011;27073;51.128;4.220;2023-06-26T13:16:03;4.90;;;1.30;;
41323;SDS011;27073;51.128;4.220;2023-06-26T13:18:30;3.42;;;1.10;;
41323;SDS011;27073;51.128;4.220;2023-06-26T13:20:55;6.50;;;1.10;;
41323;SDS011;27073;51.128;4.220;2023-06-26T13:23:21;3.63;;;1.52;;
41323;SDS011;27073;51.128;4.220;2023-06-26T13:25:47;4.68;;;0.95;;
41323;SDS011;27073;51.128;4.220;2023-06-26T13:28:12;3.72;;;1.20;;
41323;SDS011;27073;51.128;4.220;2023-06-26T13:30:38;6.05;;;1.17;;
41323;SDS011;27073;51.128;4.220;2023-06-26T13:33:04;2.65;;;1.30;;
41323;SDS011;27073;51.128;4.220;2023-06-26T13:35:29;6.60;;;1.30;;
41323;SDS011;27073;51.128;4.220;2023-06-26T13:37:55;5.53;;;1.15;;
41323;SDS011;27073;51.128;4.220;2023-06-26T13:40:21;5.35;;;1.17;;
41323;SDS011;27073;51.128;4.220;2023-06-26T14:10:18;12.57;;;2.30;;
41323;SDS011;27073;51.128;4.220;2023-06-26T14:12:44;8.00;;;1.48;;
41323;SDS011;27073;51.128;4.220;2023-06-26T14:15:10;4.65;;;1.08;;
41323;SDS011;27073;51.128;4.220;2023-06-26T14:17:35;4.38;;;1.00;;
41323;SDS011;27073;51.128;4.220;2023-06-26T14:20:01;4.45;;;0.95;;
41323;SDS011;27073;51.128;4.220;2023-06-26T14:22:27;4.05;;;1.38;;
41323;SDS011;27073;51.128;4.220;2023-06-26T14:24:53;4.10;;;1.10;;
41323;SDS011;27073;51.128;4.220;2023-06-26T14:27:18;16.75;;;2.00;;
41323;SDS011;27073;51.128;4.220;2023-06-26T14:29:44;3.45;;;1.35;;
41323;SDS011;27073;51.128;4.220;2023-06-26T14:32:10;4.03;;;1.27;;
41323;SDS011;27073;51.128;4.220;2023-06-26T14:34:36;5.65;;;1.42;;
41323;SDS011;27073;51.128;4.220;2023-06-26T14:37:02;5.00;;;1.30;;
41323;SDS011;27073;51.128;4.220;2023-06-26T14:39:27;4.80;;;1.33;;
41323;SDS011;27073;51.128;4.220;2023-06-26T14:41:53;5.82;;;1.58;;
41323;SDS011;27073;51.128;4.220;2023-06-26T14:44:19;5.80;;;1.40;;
41323;SDS011;27073;51.128;4.220;2023-06-26T14:46:44;5.30;;;1.52;;
41323;SDS011;27073;51.128;4.220;2023-06-26T14:49:10;10.68;;;1.40;;
41323;SDS011;27073;51.128;4.220;2023-06-26T14:51:36;4.20;;;1.15;;
41323;SDS011;27073;51.128;4.220;2023-06-26T14:54:03;6.32;;;1.42;;
41323;SDS011;27073;51.128;4.220;2023-06-26T14:56:29;5.30;;;1.30;;
41323;SDS011;27073;51.128;4.220;2023-06-26T14:58:54;4.60;;;1.30;;
41323;SDS011;27073;51.128;4.220;2023-06-26T15:01:20;3.60;;;1.27;;
41323;SDS011;27073;51.128;4.220;2023-06-26T15:03:46;4.32;;;1.42;;
41323;SDS011;27073;51.128;4.220;2023-06-26T15:06:12;7.65;;;1.58;;
41323;SDS011;27073;51.128;4.220;2023-06-26T15:08:38;4.72;;;1.48;;
41323;SDS011;27073;51.128;4.220;2023-06-26T15:11:03;3.25;;;1.10;;
41323;SDS011;27073;51.128;4.220;2023-06-26T15:13:29;5.60;;;1.50;;
41323;SDS011;27073;51.128;4.220;2023-06-26T15:15:55;4.82;;;1.33;;
41323;SDS011;27073;51.128;4.220;2023-06-26T15:18:21;4.00;;;1.58;;
41323;SDS011;27073;51.128;4.220;2023-06-26T15:20:46;4.03;;;1.13;;
41323;SDS011;27073;51.128;4.220;2023-06-26T15:23:12;4.05;;;0.90;;
41323;SDS011;27073;51.128;4.220;2023-06-26T15:25:38;3.25;;;1.17;;
41323;SDS011;27073;51.128;4.220;2023-06-26T15:28:04;3.60;;;0.95;;
41323;SDS011;27073;51.128;4.220;2023-06-26T15:30:30;6.35;;;1.40;;
41323;SDS011;27073;51.128;4.220;2023-06-26T15:32:56;5.57;;;1.33;;
41323;SDS011;27073;51.128;4.220;2023-06-26T15:35:22;4.15;;;1.10;;
41323;SDS011;27073;51.128;4.220;2023-06-26T15:37:47;5.32;;;1.00;;
41323;SDS011;27073;51.128;4.220;2023-06-26T15:40:16;5.90;;;1.75;;
41323;SDS011;27073;51.128;4.220;2023-06-26T15:42:46;6.32;;;2.08;;